createdAt,value
2018-11-20T00:02:03.084Z,9.27
2018-11-20T00:04:39.259Z,12.43
2018-11-20T00:07:27.281Z,11.03
2018-11-20T00:10:03.243Z,14.43
2018-11-20T00:13:07.848Z,12.93
2018-11-20T00:15:45.853Z,12.73
2018-11-20T00:18:20.069Z,13.80
2018-11-20T00:20:57.111Z,15.00
2018-11-20T00:23:33.146Z,10.07
2018-11-20T00:26:12.018Z,15.53
2018-11-20T00:29:16.183Z,13.23
2018-11-20T00:31:56.317Z,13.47
2018-11-20T00:34:32.132Z,14.97
2018-11-20T00:37:06.943Z,13.87
2018-11-20T00:39:41.911Z,13.00
2018-11-20T00:42:16.165Z,12.57
2018-11-20T00:44:59.090Z,10.50
2018-11-20T00:47:36.957Z,14.63
2018-11-20T00:50:14.277Z,13.33
2018-11-20T00:52:52.312Z,16.60
2018-11-20T00:56:38.518Z,15.60
2018-11-20T00:59:12.835Z,18.93
2018-11-20T01:01:48.742Z,14.87
2018-11-20T01:04:25.368Z,15.93
2018-11-20T01:06:59.645Z,14.33
2018-11-20T01:09:34.654Z,13.03
2018-11-20T01:12:10.137Z,23.37
2018-11-20T01:14:49.697Z,18.20
2018-11-20T01:17:23.994Z,16.27
2018-11-20T01:20:00.827Z,15.17
2018-11-20T01:22:36.886Z,19.10
2018-11-20T01:25:10.443Z,22.60
2018-11-20T01:27:44.593Z,19.93
2018-11-20T01:30:25.484Z,17.27
2018-11-20T01:33:09.479Z,18.43
2018-11-20T01:35:43.452Z,17.60
2018-11-20T01:38:49.053Z,22.80
2018-11-20T01:41:25.869Z,16.53
2018-11-20T01:43:59.917Z,21.03
2018-11-20T01:46:35.067Z,20.70
2018-11-20T01:50:07.557Z,25.60
2018-11-20T01:52:44.573Z,25.23
2018-11-20T01:55:18.769Z,29.10
2018-11-20T01:58:23.009Z,26.50
2018-11-20T02:00:57.282Z,22.80
2018-11-20T02:04:35.460Z,22.37
2018-11-20T02:07:16.676Z,26.70
2018-11-20T02:10:49.517Z,19.87
2018-11-20T02:14:27.263Z,25.50
2018-11-20T02:17:05.935Z,17.33
2018-11-20T02:19:43.131Z,27.40
2018-11-20T02:22:21.290Z,24.67
2018-11-20T02:24:55.529Z,28.77
2018-11-20T02:27:34.366Z,24.47
2018-11-20T02:30:07.345Z,23.30
2018-11-20T02:32:44.345Z,21.33
2018-11-20T02:35:21.750Z,23.97
2018-11-20T02:37:57.731Z,20.47
2018-11-20T02:40:36.420Z,21.27
2018-11-20T02:43:16.452Z,21.43
2018-11-20T02:45:52.511Z,23.33
2018-11-20T02:50:35.599Z,28.50
2018-11-20T02:53:09.634Z,25.23
2018-11-20T02:55:43.798Z,22.70
2018-11-20T02:58:18.736Z,21.20
2018-11-20T03:01:11.820Z,20.13
2018-11-20T03:05:53.694Z,19.13
2018-11-20T03:08:31.765Z,20.43
2018-11-20T03:11:06.074Z,20.53
2018-11-20T03:13:41.232Z,18.13
2018-11-20T03:16:16.092Z,19.30
2018-11-20T03:18:50.371Z,19.33
2018-11-20T03:21:26.337Z,17.57
2018-11-20T03:23:59.329Z,16.33
2018-11-20T03:26:33.237Z,19.03
2018-11-20T03:29:10.701Z,20.50
2018-11-20T03:31:44.600Z,16.33
2018-11-20T03:34:24.523Z,22.37
2018-11-20T03:37:03.559Z,18.80
2018-11-20T03:39:38.171Z,18.30
2018-11-20T03:42:16.228Z,20.07
2018-11-20T03:44:50.526Z,18.17
2018-11-20T03:47:27.651Z,19.80
2018-11-20T03:50:01.703Z,19.97
2018-11-20T03:52:36.331Z,20.67
2018-11-20T03:55:24.716Z,20.53
2018-11-20T03:57:57.686Z,23.70
2018-11-20T04:00:33.745Z,18.60
2018-11-20T04:03:09.653Z,20.67
2018-11-20T04:05:53.846Z,22.50
2018-11-20T04:08:41.816Z,18.97
2018-11-20T04:11:18.842Z,19.37
2018-11-20T04:13:53.034Z,20.73
2018-11-20T04:18:29.460Z,22.03
2018-11-20T04:21:03.398Z,25.43
2018-11-20T04:23:56.409Z,19.57
2018-11-20T04:27:00.800Z,16.13
2018-11-20T04:29:33.864Z,29.50
2018-11-20T04:32:08.105Z,23.93
2018-11-20T04:34:42.006Z,23.37
2018-11-20T04:37:16.151Z,21.70
2018-11-20T04:39:58.361Z,25.07
2018-11-20T04:42:31.317Z,27.20
2018-11-20T04:47:13.682Z,23.30
2018-11-20T04:49:46.643Z,20.23
2018-11-20T04:52:50.041Z,24.13
2018-11-20T04:55:26.130Z,22.77
2018-11-20T04:58:02.989Z,28.07
2018-11-20T05:00:42.875Z,26.97
2018-11-20T05:03:19.855Z,22.77
2018-11-20T05:05:54.974Z,23.17
2018-11-20T05:08:29.228Z,22.13
2018-11-20T05:11:34.437Z,26.23
2018-11-20T05:16:16.552Z,24.10
2018-11-20T05:18:52.526Z,27.20
2018-11-20T05:21:31.071Z,27.83
2018-11-20T05:24:05.143Z,28.53
2018-11-20T05:26:38.079Z,23.83
2018-11-20T05:29:12.539Z,26.80
2018-11-20T05:32:45.360Z,22.53
2018-11-20T05:35:23.158Z,26.93
2018-11-20T05:37:57.193Z,28.13
2018-11-20T05:41:33.053Z,23.70
2018-11-20T05:44:07.165Z,20.13
2018-11-20T05:47:41.026Z,24.73
2018-11-20T05:50:18.088Z,25.97
2018-11-20T05:52:53.110Z,25.90
2018-11-20T05:55:45.973Z,24.60
2018-11-20T05:58:27.770Z,23.73
2018-11-20T06:01:01.277Z,23.83
2018-11-20T06:05:40.364Z,24.13
2018-11-20T06:08:17.079Z,24.73
2018-11-20T06:10:50.760Z,27.13
2018-11-20T06:13:31.073Z,26.53
2018-11-20T06:18:08.658Z,28.97
2018-11-20T06:21:47.429Z,25.30
2018-11-20T06:24:20.395Z,30.10
2018-11-20T06:27:58.404Z,25.00
2018-11-20T06:30:35.329Z,25.43
2018-11-20T06:33:10.286Z,31.67
2018-11-20T06:35:45.298Z,28.63
2018-11-20T06:38:20.187Z,27.47
2018-11-20T06:42:59.748Z,28.23
2018-11-20T06:45:36.690Z,27.50
2018-11-20T06:48:14.649Z,32.93
2018-11-20T06:50:50.596Z,29.53
2018-11-20T06:53:26.623Z,31.07
2018-11-20T06:58:04.495Z,31.77
2018-11-20T07:00:39.627Z,30.27
2018-11-20T07:05:19.534Z,33.33
2018-11-20T07:07:59.536Z,29.03
2018-11-20T07:12:40.516Z,27.57
2018-11-20T07:15:15.539Z,29.70
2018-11-20T07:17:52.505Z,35.40
2018-11-20T07:20:26.599Z,34.23
2018-11-20T07:23:15.809Z,33.00
2018-11-20T07:27:55.863Z,29.67
2018-11-20T07:31:28.341Z,43.00
2018-11-20T07:34:02.450Z,33.60
2018-11-20T07:36:37.184Z,36.70
2018-11-20T07:39:12.899Z,36.77
2018-11-20T07:41:50.100Z,44.17
2018-11-20T07:44:25.205Z,38.70
2018-11-20T07:47:07.540Z,37.43
2018-11-20T07:49:41.599Z,45.57
2018-11-20T07:53:19.278Z,41.43
2018-11-20T07:55:53.571Z,34.57
2018-11-20T07:58:26.558Z,38.90
2018-11-20T08:01:00.829Z,42.10
2018-11-20T08:03:33.965Z,42.83
2018-11-20T08:06:08.160Z,45.13
2018-11-20T08:08:42.138Z,45.97
2018-11-20T08:11:16.378Z,44.57
2018-11-20T08:15:56.948Z,41.60
2018-11-20T08:18:49.149Z,33.67
2018-11-20T08:21:23.024Z,48.50
2018-11-20T08:23:57.240Z,43.23
2018-11-20T08:26:34.294Z,46.43
2018-11-20T08:29:14.229Z,48.30
2018-11-20T08:31:47.251Z,46.17
2018-11-20T08:34:20.264Z,48.87
2018-11-20T08:36:54.410Z,44.53
2018-11-20T08:39:28.570Z,46.40
2018-11-20T08:42:22.671Z,44.50
2018-11-20T08:45:59.162Z,44.43
2018-11-20T08:48:33.385Z,45.67
2018-11-20T08:51:07.157Z,41.63
2018-11-20T08:53:41.781Z,43.60
2018-11-20T08:56:22.222Z,42.37
2018-11-20T08:59:00.761Z,45.53
2018-11-20T09:01:35.690Z,41.67
2018-11-20T09:04:09.824Z,45.17
2018-11-20T09:06:44.108Z,43.43
2018-11-20T09:09:18.977Z,36.47
2018-11-20T09:12:51.513Z,51.07
2018-11-20T09:16:27.424Z,51.77
2018-11-20T09:21:04.051Z,46.53
2018-11-20T09:24:41.025Z,41.53
2018-11-20T09:27:17.996Z,47.30
2018-11-20T09:30:12.170Z,44.73
2018-11-20T09:32:45.130Z,41.57
2018-11-20T09:35:23.238Z,47.57
2018-11-20T09:38:00.037Z,37.07
2018-11-20T09:40:47.285Z,45.43
2018-11-20T09:44:20.496Z,44.70
2018-11-20T09:46:54.801Z,48.90
2018-11-20T09:49:28.606Z,46.40
2018-11-20T09:52:03.500Z,46.83
2018-11-20T09:54:37.626Z,48.33
2018-11-20T09:57:14.495Z,49.63
2018-11-20T09:59:50.282Z,45.87
2018-11-20T10:02:24.102Z,42.07
2018-11-20T10:07:05.219Z,40.50
2018-11-20T10:09:41.006Z,45.47
2018-11-20T10:14:18.285Z,41.70
2018-11-20T10:16:52.501Z,43.87
2018-11-20T10:19:31.502Z,46.47
2018-11-20T10:22:14.509Z,45.17
2018-11-20T10:25:52.353Z,46.00
2018-11-20T10:28:26.401Z,44.23
2018-11-20T10:31:01.276Z,48.70
2018-11-20T10:33:35.385Z,47.40
2018-11-20T10:36:09.356Z,41.70
2018-11-20T10:38:43.469Z,44.83
2018-11-20T10:43:21.318Z,45.57
2018-11-20T10:46:14.793Z,43.23
2018-11-20T10:48:48.667Z,43.90
2018-11-20T10:51:29.477Z,36.17
2018-11-20T10:54:03.637Z,44.03
2018-11-20T10:56:38.524Z,43.23
2018-11-20T10:59:44.411Z,48.20
2018-11-20T11:02:18.593Z,45.23
2018-11-20T11:04:52.741Z,39.50
2018-11-20T11:07:27.084Z,46.57
2018-11-20T11:10:01.238Z,49.47
2018-11-20T11:12:35.402Z,44.93
2018-11-20T11:15:10.214Z,48.13
2018-11-20T11:17:44.252Z,47.07
2018-11-20T11:20:26.956Z,43.30
2018-11-20T11:23:08.946Z,48.23
2018-11-20T11:27:47.891Z,58.17
2018-11-20T11:31:24.984Z,45.60
2018-11-20T11:33:59.181Z,45.50
2018-11-20T11:36:36.023Z,42.13
2018-11-20T11:39:14.739Z,44.27
2018-11-20T11:41:57.800Z,44.40
2018-11-20T11:46:38.028Z,40.23
2018-11-20T11:49:12.214Z,43.17
2018-11-20T11:51:45.187Z,41.83
2018-11-20T11:54:19.086Z,44.00
2018-11-20T11:56:56.042Z,48.60
